Terminal Aerodrome Forecast
Issued by NWS Chicago, IL

Home | Current Version | Previous Version | Graphics & Text | Print | Product List | Glossary On
Versions: 1 2 3 4 5 6 7 8 9 10 11 12 13 14 15 16 17 18 19 20 21 22 23 24 25 26 27 28 29 30 31 32
784
FTUS43 KLOT 201732 CCA
TAFRFD
TAF COR
KRFD 201732Z 2018/2118 03010KT 6SM -RA BKN050 OVC100
     FM201900 04010KT P6SM OVC050
      TEMPO 2019/2023 6SM -SHRA
     FM202300 VRB03KT P6SM BKN060
     FM210200 27006KT P6SM BKN080
     FM211400 28011KT P6SM SCT120=

USA.gov is the U.S. government's official web portal to all federal, state and local government web resources and services.